createdAt,value
2018-10-06T00:00:57.450Z,1007.30
2018-10-06T00:01:57.469Z,1007.27
2018-10-06T00:02:57.484Z,1007.30
2018-10-06T00:03:57.505Z,1007.32
2018-10-06T00:04:57.527Z,1007.26
2018-10-06T00:05:57.547Z,1007.26
2018-10-06T00:06:57.565Z,1007.24
2018-10-06T00:07:57.586Z,1007.25
2018-10-06T00:08:57.601Z,1007.23
2018-10-06T00:09:57.623Z,1007.22
2018-10-06T00:10:57.641Z,1007.23
2018-10-06T00:11:57.662Z,1007.20
2018-10-06T00:12:57.680Z,1007.23
2018-10-06T00:13:57.697Z,1007.25
2018-10-06T00:14:57.719Z,1007.20
2018-10-06T00:15:57.736Z,1007.25
2018-10-06T00:16:57.757Z,1007.20
2018-10-06T00:17:57.777Z,1007.20
2018-10-06T00:18:57.796Z,1007.19
2018-10-06T00:19:57.813Z,1007.21
2018-10-06T00:20:57.832Z,1007.16
2018-10-06T00:21:57.852Z,1007.18
2018-10-06T00:22:57.871Z,1007.15
2018-10-06T00:23:57.893Z,1007.13
2018-10-06T00:24:57.912Z,1007.13
2018-10-06T00:25:57.929Z,1007.08
2018-10-06T00:26:57.950Z,1007.10
2018-10-06T00:27:57.970Z,1007.11
2018-10-06T00:28:57.988Z,1007.13
2018-10-06T00:29:58.008Z,1007.09
2018-10-06T00:30:58.028Z,1007.09
2018-10-06T00:31:58.043Z,1007.10
2018-10-06T00:32:58.067Z,1007.05
2018-10-06T00:33:58.085Z,1007.07
2018-10-06T00:34:58.101Z,1007.09
2018-10-06T00:35:58.124Z,1007.07
2018-10-06T00:36:58.140Z,1007.06
2018-10-06T00:37:58.162Z,1007.08
2018-10-06T00:38:58.178Z,1007.02
2018-10-06T00:39:58.199Z,1007.03
2018-10-06T00:40:58.219Z,1006.99
2018-10-06T00:41:58.239Z,1007.00
2018-10-06T00:42:58.254Z,1006.97
2018-10-06T00:43:58.273Z,1006.97
2018-10-06T00:44:58.300Z,1006.97
2018-10-06T00:45:58.317Z,1006.98
2018-10-06T00:46:58.331Z,1006.97
2018-10-06T00:47:58.353Z,1007.00
2018-10-06T00:48:58.371Z,1007.00
2018-10-06T00:49:58.389Z,1007.04
2018-10-06T00:50:58.411Z,1007.01
2018-10-06T00:51:58.430Z,1007.05
2018-10-06T00:52:58.447Z,1007.03
2018-10-06T00:53:58.469Z,1007.00
2018-10-06T00:54:58.484Z,1006.94
2018-10-06T00:55:58.512Z,1006.93
2018-10-06T00:56:58.523Z,1006.89
2018-10-06T00:57:58.545Z,1006.88
2018-10-06T00:58:58.563Z,1006.88
2018-10-06T00:59:58.580Z,1006.86
2018-10-06T01:00:58.602Z,1006.84
2018-10-06T01:01:58.622Z,1006.83
2018-10-06T01:02:58.838Z,1006.85
2018-10-06T01:03:58.658Z,1006.86
2018-10-06T01:04:58.675Z,1006.84
2018-10-06T01:05:58.697Z,1006.81
2018-10-06T01:06:58.719Z,1006.88
2018-10-06T01:07:58.736Z,1006.83
2018-10-06T01:08:58.755Z,1006.84
2018-10-06T01:09:58.771Z,1006.86
2018-10-06T01:10:58.793Z,1006.87
2018-10-06T01:11:58.809Z,1006.85
2018-10-06T01:12:58.829Z,1006.84
2018-10-06T01:13:58.851Z,1006.82
2018-10-06T01:14:58.871Z,1006.77
2018-10-06T01:15:58.888Z,1006.77
2018-10-06T01:16:58.904Z,1006.78
2018-10-06T01:17:58.927Z,1006.72
2018-10-06T01:18:58.942Z,1006.76
2018-10-06T01:19:58.967Z,1006.71
2018-10-06T01:20:58.984Z,1006.68
2018-10-06T01:21:59.001Z,1006.69
2018-10-06T01:22:59.018Z,1006.68
2018-10-06T01:23:59.040Z,1006.68
2018-10-06T01:24:59.059Z,1006.68
2018-10-06T01:25:59.077Z,1006.66
2018-10-06T01:26:59.094Z,1006.63
2018-10-06T01:27:59.117Z,1006.64
2018-10-06T01:28:59.145Z,1006.64
2018-10-06T01:29:59.152Z,1006.63
2018-10-06T01:30:59.173Z,1006.64
2018-10-06T01:31:59.193Z,1006.61
2018-10-06T01:32:59.211Z,1006.62
2018-10-06T01:33:59.229Z,1006.63
2018-10-06T01:34:59.248Z,1006.63
2018-10-06T01:35:59.268Z,1006.66
2018-10-06T01:36:59.286Z,1006.62
2018-10-06T01:37:59.307Z,1006.61
2018-10-06T01:38:59.324Z,1006.59
2018-10-06T01:39:59.345Z,1006.56
2018-10-06T01:40:59.368Z,1006.56
2018-10-06T01:41:59.380Z,1006.55
2018-10-06T01:42:59.401Z,1006.54
2018-10-06T01:43:59.417Z,1006.54
2018-10-06T01:44:59.436Z,1006.54
2018-10-06T01:45:59.458Z,1006.49
2018-10-06T01:46:59.474Z,1006.49
2018-10-06T01:47:59.496Z,1006.52
2018-10-06T01:48:59.512Z,1006.50
2018-10-06T01:49:59.613Z,1006.52
2018-10-06T01:50:59.558Z,1006.48
2018-10-06T01:51:59.571Z,1006.43
2018-10-06T01:52:59.591Z,1006.40
2018-10-06T01:53:59.607Z,1006.40
2018-10-06T01:54:59.625Z,1006.38
2018-10-06T01:55:59.644Z,1006.40
2018-10-06T01:56:59.666Z,1006.39
2018-10-06T01:57:59.685Z,1006.40
2018-10-06T01:58:59.702Z,1006.42
2018-10-06T01:59:59.721Z,1006.39
2018-10-06T02:00:59.746Z,1006.36
2018-10-06T02:01:59.761Z,1006.34
2018-10-06T02:02:59.777Z,1006.33
2018-10-06T02:03:59.797Z,1006.33
2018-10-06T02:04:59.818Z,1006.27
2018-10-06T02:05:59.833Z,1006.28
2018-10-06T02:06:59.854Z,1006.27
2018-10-06T02:07:59.870Z,1006.25
2018-10-06T02:08:59.892Z,1006.26
2018-10-06T02:09:59.912Z,1006.22
2018-10-06T02:10:59.926Z,1006.19
2018-10-06T02:11:59.949Z,1006.19
2018-10-06T02:12:59.966Z,1006.16
2018-10-06T02:13:59.984Z,1006.15
2018-10-06T02:15:00.004Z,1006.14
2018-10-06T02:16:00.021Z,1006.13
2018-10-06T02:17:00.041Z,1006.16
2018-10-06T02:18:00.059Z,1006.11
2018-10-06T02:19:00.079Z,1006.09
2018-10-06T02:20:00.097Z,1006.08
2018-10-06T02:21:00.117Z,1006.05
2018-10-06T02:22:00.135Z,1006.09
2018-10-06T02:23:00.155Z,1006.11
2018-10-06T02:24:00.174Z,1006.12
2018-10-06T02:25:00.190Z,1006.09
2018-10-06T02:26:00.212Z,1006.13
2018-10-06T02:27:00.231Z,1006.11
2018-10-06T02:28:00.249Z,1006.15
2018-10-06T02:29:00.268Z,1006.12
2018-10-06T02:30:00.316Z,1006.13
2018-10-06T02:31:00.307Z,1006.10
2018-10-06T02:32:00.323Z,1006.09
2018-10-06T02:33:00.344Z,1006.13
2018-10-06T02:34:00.362Z,1006.11
2018-10-06T02:35:00.378Z,1006.12
2018-10-06T02:36:00.396Z,1006.13
2018-10-06T02:37:00.419Z,1006.08
2018-10-06T02:38:00.437Z,1006.11
2018-10-06T02:39:00.452Z,1006.10
2018-10-06T02:40:00.471Z,1006.14
2018-10-06T02:41:00.494Z,1006.22
2018-10-06T02:42:00.512Z,1006.16
2018-10-06T02:43:00.528Z,1006.15
2018-10-06T02:44:00.546Z,1006.20
2018-10-06T02:45:00.569Z,1006.19
2018-10-06T02:46:00.585Z,1006.20
2018-10-06T02:47:00.605Z,1006.23
2018-10-06T02:48:00.621Z,1006.20
2018-10-06T02:49:00.646Z,1006.23
2018-10-06T02:50:00.659Z,1006.22
2018-10-06T02:51:00.679Z,1006.22
2018-10-06T02:52:00.696Z,1006.21
2018-10-06T02:53:00.714Z,1006.20
2018-10-06T02:54:00.736Z,1006.19
2018-10-06T02:55:00.751Z,1006.19
2018-10-06T02:56:00.773Z,1006.21
2018-10-06T02:57:00.791Z,1006.20
2018-10-06T02:58:00.811Z,1006.20
2018-10-06T02:59:00.826Z,1006.17
2018-10-06T03:00:00.847Z,1006.15
2018-10-06T03:01:00.863Z,1006.16
2018-10-06T03:02:00.887Z,1006.10
2018-10-06T03:03:00.900Z,1006.16
2018-10-06T03:04:00.919Z,1006.13
2018-10-06T03:05:00.941Z,1006.14
2018-10-06T03:06:00.956Z,1006.13
2018-10-06T03:07:00.976Z,1006.15
2018-10-06T03:08:00.993Z,1006.17
2018-10-06T03:09:01.012Z,1006.11
2018-10-06T03:10:01.030Z,1006.12
2018-10-06T03:11:01.048Z,1006.11
2018-10-06T03:12:01.070Z,1006.07
2018-10-06T03:13:01.086Z,1006.03
2018-10-06T03:14:01.106Z,1006.04
2018-10-06T03:15:01.123Z,1006.03
2018-10-06T03:16:01.142Z,1006.04
2018-10-06T03:17:01.166Z,1006.03
2018-10-06T03:18:01.181Z,1006.05
2018-10-06T03:19:01.197Z,1006.04
2018-10-06T03:20:01.219Z,1006.01
2018-10-06T03:21:01.236Z,1006.04
2018-10-06T03:22:01.253Z,1006.00
2018-10-06T03:23:01.272Z,1005.98
2018-10-06T03:24:01.291Z,1006.01
2018-10-06T03:25:01.350Z,1005.98
2018-10-06T03:26:01.331Z,1005.98
2018-10-06T03:27:01.350Z,1005.95
2018-10-06T03:28:01.366Z,1005.98
2018-10-06T03:29:01.387Z,1005.95
2018-10-06T03:30:01.407Z,1005.93
2018-10-06T03:31:01.419Z,1005.96
2018-10-06T03:32:01.442Z,1005.93
2018-10-06T03:33:01.459Z,1005.88
2018-10-06T03:34:01.479Z,1005.84
2018-10-06T03:35:01.493Z,1005.81
2018-10-06T03:36:01.517Z,1005.84
2018-10-06T03:37:01.534Z,1005.83
2018-10-06T03:38:01.556Z,1005.83
2018-10-06T03:39:01.570Z,1005.80
2018-10-06T03:40:01.589Z,1005.83
2018-10-06T03:41:01.605Z,1005.82
2018-10-06T03:42:01.629Z,1005.86
2018-10-06T03:43:01.643Z,1005.84
2018-10-06T03:44:01.666Z,1005.83
2018-10-06T03:45:01.682Z,1005.84
2018-10-06T03:46:01.698Z,1005.82
2018-10-06T03:47:01.715Z,1005.78
2018-10-06T03:48:01.733Z,1005.78
2018-10-06T03:49:01.755Z,1005.77
2018-10-06T03:50:01.772Z,1005.75
2018-10-06T03:51:01.792Z,1005.74
2018-10-06T03:52:01.809Z,1005.71
2018-10-06T03:53:01.828Z,1005.71
2018-10-06T03:54:01.932Z,1005.70
2018-10-06T03:55:01.873Z,1005.69
2018-10-06T03:56:01.888Z,1005.66
2018-10-06T03:57:01.902Z,1005.66
2018-10-06T03:58:01.921Z,1005.68
2018-10-06T03:59:01.937Z,1005.66
2018-10-06T04:00:01.957Z,1005.63
2018-10-06T04:01:01.981Z,1005.59
2018-10-06T04:02:01.991Z,1005.61
2018-10-06T04:03:02.009Z,1005.60
2018-10-06T04:04:02.029Z,1005.60
2018-10-06T04:05:02.046Z,1005.57
2018-10-06T04:06:02.070Z,1005.59
2018-10-06T04:07:02.085Z,1005.57
2018-10-06T04:08:02.100Z,1005.59
2018-10-06T04:09:02.122Z,1005.54
2018-10-06T04:10:02.138Z,1005.55
2018-10-06T04:11:02.154Z,1005.54
2018-10-06T04:12:02.176Z,1005.49
2018-10-06T04:13:02.195Z,1005.52
2018-10-06T04:14:02.213Z,1005.51
2018-10-06T04:15:02.228Z,1005.52
2018-10-06T04:16:02.250Z,1005.53
2018-10-06T04:17:02.269Z,1005.53
2018-10-06T04:18:02.291Z,1005.53
2018-10-06T04:19:02.302Z,1005.52
2018-10-06T04:20:02.325Z,1005.52
2018-10-06T04:21:02.343Z,1005.54
2018-10-06T04:22:02.357Z,1005.48
2018-10-06T04:23:02.375Z,1005.51
2018-10-06T04:24:02.397Z,1005.47
2018-10-06T04:25:02.415Z,1005.50
2018-10-06T04:26:02.433Z,1005.50
2018-10-06T04:27:02.450Z,1005.50
2018-10-06T04:28:02.467Z,1005.50
2018-10-06T04:29:02.484Z,1005.43
2018-10-06T04:30:02.505Z,1005.40
2018-10-06T04:31:02.522Z,1005.40
2018-10-06T04:32:02.587Z,1005.40
2018-10-06T04:33:02.558Z,1005.35
2018-10-06T04:34:02.579Z,1005.33
2018-10-06T04:35:02.594Z,1005.32
2018-10-06T04:36:02.612Z,1005.33
2018-10-06T04:37:02.630Z,1005.34
2018-10-06T04:38:02.652Z,1005.33
2018-10-06T04:39:02.667Z,1005.30
2018-10-06T04:40:02.691Z,1005.32
2018-10-06T04:41:02.703Z,1005.30
2018-10-06T04:42:02.724Z,1005.28
2018-10-06T04:43:02.742Z,1005.27
2018-10-06T04:44:02.757Z,1005.24
2018-10-06T04:45:02.781Z,1005.26
2018-10-06T04:46:02.795Z,1005.24
2018-10-06T04:47:02.813Z,1005.24
2018-10-06T04:48:02.831Z,1005.21
2018-10-06T04:49:02.849Z,1005.21
2018-10-06T04:50:02.868Z,1005.21
2018-10-06T04:51:02.889Z,1005.23
2018-10-06T04:52:02.904Z,1005.20
2018-10-06T04:53:02.976Z,1005.19
2018-10-06T04:54:02.940Z,1005.22
2018-10-06T04:55:02.960Z,1005.15
2018-10-06T04:56:02.981Z,1005.19
2018-10-06T04:57:02.998Z,1005.14
2018-10-06T04:58:03.016Z,1005.21
2018-10-06T04:59:03.034Z,1005.17
2018-10-06T05:00:03.049Z,1005.21
2018-10-06T05:01:03.071Z,1005.16
2018-10-06T05:02:03.087Z,1005.14
2018-10-06T05:03:03.107Z,1005.13
2018-10-06T05:04:03.127Z,1005.17
2018-10-06T05:05:03.143Z,1005.15
2018-10-06T05:06:03.162Z,1005.14
2018-10-06T05:07:03.177Z,1005.11
2018-10-06T05:08:03.197Z,1005.10
2018-10-06T05:09:03.212Z,1005.07
2018-10-06T05:10:03.234Z,1005.09
2018-10-06T05:11:03.252Z,1005.02
2018-10-06T05:12:03.267Z,1005.01
2018-10-06T05:13:03.288Z,1005.01
2018-10-06T05:14:03.305Z,1004.97
2018-10-06T05:15:03.321Z,1004.99
2018-10-06T05:16:03.340Z,1004.98
2018-10-06T05:17:03.357Z,1004.98
2018-10-06T05:18:03.381Z,1004.96
2018-10-06T05:19:03.403Z,1004.98
2018-10-06T05:20:03.415Z,1004.94
2018-10-06T05:21:03.431Z,1004.95
2018-10-06T05:22:03.449Z,1004.94
2018-10-06T05:23:03.467Z,1004.96
2018-10-06T05:24:03.488Z,1004.96
2018-10-06T05:25:03.507Z,1004.99
2018-10-06T05:26:03.521Z,1004.95
2018-10-06T05:27:03.538Z,1004.94
2018-10-06T05:28:03.559Z,1005.01
2018-10-06T05:29:03.575Z,1004.98
2018-10-06T05:30:03.593Z,1005.01
2018-10-06T05:31:03.615Z,1004.98
2018-10-06T05:32:03.628Z,1005.03
2018-10-06T05:33:03.647Z,1005.05
2018-10-06T05:34:03.787Z,1005.01
2018-10-06T05:35:03.683Z,1005.00
2018-10-06T05:36:03.704Z,1005.00
2018-10-06T05:37:03.726Z,1005.01
2018-10-06T05:38:03.739Z,1004.99
2018-10-06T05:39:03.757Z,1005.00
2018-10-06T05:40:03.776Z,1005.01
2018-10-06T05:41:03.791Z,1005.00
2018-10-06T05:42:03.810Z,1004.98
2018-10-06T05:43:03.830Z,1004.98
2018-10-06T05:44:03.846Z,1004.99
2018-10-06T05:45:03.864Z,1004.98
2018-10-06T05:46:03.884Z,1004.96
2018-10-06T05:47:03.899Z,1004.97
2018-10-06T05:48:03.921Z,1004.97
2018-10-06T05:49:03.942Z,1004.95
2018-10-06T05:50:03.957Z,1004.93
2018-10-06T05:51:03.975Z,1004.94
2018-10-06T05:52:03.994Z,1004.92
2018-10-06T05:53:04.009Z,1004.92
2018-10-06T05:54:04.029Z,1004.91
2018-10-06T05:55:04.046Z,1004.94
2018-10-06T05:56:04.062Z,1004.90
2018-10-06T05:57:04.080Z,1004.92
2018-10-06T05:58:04.100Z,1004.89
2018-10-06T05:59:04.194Z,1004.89
2018-10-06T06:00:04.138Z,1004.89
2018-10-06T06:01:04.156Z,1004.87
2018-10-06T06:02:04.175Z,1004.87
2018-10-06T06:03:04.191Z,1004.88
2018-10-06T06:04:04.206Z,1004.85
2018-10-06T06:05:04.228Z,1004.89
2018-10-06T06:06:04.243Z,1004.89
2018-10-06T06:07:04.264Z,1004.85
2018-10-06T06:08:04.282Z,1004.90
2018-10-06T06:09:04.297Z,1004.92
2018-10-06T06:10:04.319Z,1004.90
2018-10-06T06:11:04.332Z,1004.93
2018-10-06T06:12:04.353Z,1004.91
2018-10-06T06:13:04.375Z,1004.86
2018-10-06T06:14:04.389Z,1004.88
2018-10-06T06:15:04.406Z,1004.86
2018-10-06T06:16:04.423Z,1004.88
2018-10-06T06:17:04.442Z,1004.91
2018-10-06T06:18:04.463Z,1004.88
2018-10-06T06:19:04.480Z,1004.90
2018-10-06T06:20:04.496Z,1004.89
2018-10-06T06:21:04.516Z,1004.85
2018-10-06T06:22:04.537Z,1004.86
2018-10-06T06:23:04.553Z,1004.84
2018-10-06T06:24:04.678Z,1004.80
2018-10-06T06:25:04.587Z,1004.81
2018-10-06T06:26:04.608Z,1004.82
2018-10-06T06:27:04.624Z,1004.84
2018-10-06T06:28:04.643Z,1004.83
2018-10-06T06:29:04.660Z,1004.79
2018-10-06T06:30:04.677Z,1004.80
2018-10-06T06:31:04.699Z,1004.81
2018-10-06T06:32:04.725Z,1004.84
2018-10-06T06:33:04.730Z,1004.85
2018-10-06T06:34:04.753Z,1004.82
2018-10-06T06:35:04.772Z,1004.81
2018-10-06T06:36:04.785Z,1004.84
2018-10-06T06:37:04.803Z,1004.82
2018-10-06T06:38:04.824Z,1004.83
2018-10-06T06:39:04.843Z,1004.81
2018-10-06T06:40:04.858Z,1004.82
2018-10-06T06:41:04.878Z,1004.83
2018-10-06T06:42:04.898Z,1004.86
2018-10-06T06:43:04.912Z,1004.82
2018-10-06T06:44:05.024Z,1004.86
2018-10-06T06:45:04.980Z,1004.87
2018-10-06T06:46:04.969Z,1004.87
2018-10-06T06:47:04.987Z,1004.86
2018-10-06T06:48:05.003Z,1004.87
2018-10-06T06:49:05.025Z,1004.87
2018-10-06T06:50:05.041Z,1004.87
2018-10-06T06:51:05.060Z,1004.89
2018-10-06T06:52:05.077Z,1004.88
2018-10-06T06:53:05.099Z,1004.85
2018-10-06T06:54:05.116Z,1004.87
2018-10-06T06:55:05.271Z,1004.88
2018-10-06T06:56:05.148Z,1004.90
2018-10-06T06:57:05.167Z,1004.83
2018-10-06T06:58:05.186Z,1004.82
2018-10-06T06:59:05.203Z,1004.83
2018-10-06T07:00:05.222Z,1004.87
2018-10-06T07:01:05.244Z,1004.87
2018-10-06T07:02:05.263Z,1004.82
2018-10-06T07:03:05.280Z,1004.87
2018-10-06T07:04:05.297Z,1004.85
2018-10-06T07:05:05.314Z,1004.87
2018-10-06T07:06:05.332Z,1004.85
2018-10-06T07:07:05.352Z,1004.89
2018-10-06T07:08:05.371Z,1004.87
2018-10-06T07:09:05.390Z,1004.86
2018-10-06T07:10:05.408Z,1004.87
2018-10-06T07:11:05.425Z,1004.85
2018-10-06T07:12:05.442Z,1004.86
2018-10-06T07:13:05.461Z,1004.89
2018-10-06T07:14:05.482Z,1004.86
2018-10-06T07:15:05.499Z,1004.87
2018-10-06T07:16:05.516Z,1004.85
2018-10-06T07:17:05.539Z,1004.88
2018-10-06T07:18:05.553Z,1004.89
2018-10-06T07:19:05.576Z,1004.87
2018-10-06T07:20:05.594Z,1004.86
2018-10-06T07:21:05.609Z,1004.86
2018-10-06T07:22:05.627Z,1004.86
2018-10-06T07:23:05.645Z,1004.83
2018-10-06T07:24:05.664Z,1004.79
2018-10-06T07:25:05.683Z,1004.78
2018-10-06T07:26:05.705Z,1004.73
2018-10-06T07:27:05.719Z,1004.74
2018-10-06T07:28:05.738Z,1004.74
2018-10-06T07:29:05.762Z,1004.67
2018-10-06T07:30:05.776Z,1004.70
2018-10-06T07:31:05.798Z,1004.70
2018-10-06T07:32:05.814Z,1004.67
2018-10-06T07:33:05.832Z,1004.70
2018-10-06T07:34:05.851Z,1004.70
2018-10-06T07:35:05.873Z,1004.72
2018-10-06T07:36:05.888Z,1004.68
2018-10-06T07:37:05.915Z,1004.68
2018-10-06T07:38:05.929Z,1004.67
2018-10-06T07:39:05.948Z,1004.65
2018-10-06T07:40:05.967Z,1004.68
2018-10-06T07:41:05.993Z,1004.67
2018-10-06T07:42:06.008Z,1004.68
2018-10-06T07:43:06.025Z,1004.65
2018-10-06T07:44:06.042Z,1004.64
2018-10-06T07:45:06.067Z,1004.67
2018-10-06T07:46:06.087Z,1004.67
2018-10-06T07:47:06.133Z,1004.68
2018-10-06T07:48:06.120Z,1004.69
2018-10-06T07:49:06.137Z,1004.66
2018-10-06T07:50:06.157Z,1004.65
2018-10-06T07:51:06.177Z,1004.63
2018-10-06T07:52:06.193Z,1004.66
2018-10-06T07:53:06.269Z,1004.65
2018-10-06T07:54:06.232Z,1004.69
2018-10-06T07:55:06.252Z,1004.62
2018-10-06T07:56:06.269Z,1004.67
2018-10-06T07:57:06.288Z,1004.61
2018-10-06T07:58:06.310Z,1004.64
2018-10-06T07:59:06.343Z,1004.63
2018-10-06T08:00:06.348Z,1004.62
2018-10-06T08:01:06.375Z,1004.61
2018-10-06T08:02:06.391Z,1004.57
2018-10-06T08:03:06.405Z,1004.57
2018-10-06T08:04:06.428Z,1004.54
2018-10-06T08:05:06.450Z,1004.59
2018-10-06T08:06:06.468Z,1004.54
2018-10-06T08:07:06.481Z,1004.53
2018-10-06T08:08:06.507Z,1004.49
2018-10-06T08:09:06.524Z,1004.52
2018-10-06T08:10:06.541Z,1004.48
2018-10-06T08:11:06.569Z,1004.47
2018-10-06T08:12:06.581Z,1004.44
2018-10-06T08:13:06.602Z,1004.39
2018-10-06T08:14:06.625Z,1004.43
2018-10-06T08:15:06.647Z,1004.43
2018-10-06T08:16:06.660Z,1004.43
2018-10-06T08:17:06.680Z,1004.44
2018-10-06T08:18:06.707Z,1004.40
2018-10-06T08:19:06.719Z,1004.37
2018-10-06T08:20:06.744Z,1004.38
2018-10-06T08:21:06.763Z,1004.34
2018-10-06T08:22:06.784Z,1004.32
2018-10-06T08:23:06.804Z,1004.38
2018-10-06T08:24:06.822Z,1004.36
2018-10-06T08:25:06.845Z,1004.31
2018-10-06T08:26:06.863Z,1004.31
2018-10-06T08:27:06.885Z,1004.32
2018-10-06T08:28:06.903Z,1004.31
2018-10-06T08:29:06.923Z,1004.29
2018-10-06T08:30:06.946Z,1004.29
2018-10-06T08:31:06.966Z,1004.25
2018-10-06T08:32:06.985Z,1004.27
2018-10-06T08:33:07.008Z,1004.23
2018-10-06T08:34:07.028Z,1004.29
2018-10-06T08:35:07.055Z,1004.24
2018-10-06T08:36:07.066Z,1004.24
2018-10-06T08:37:07.092Z,1004.25
2018-10-06T08:38:07.114Z,1004.21
2018-10-06T08:39:07.131Z,1004.26
2018-10-06T08:40:07.152Z,1004.25
2018-10-06T08:41:07.172Z,1004.22
2018-10-06T08:42:07.191Z,1004.19
2018-10-06T08:43:07.214Z,1004.24
2018-10-06T08:44:07.232Z,1004.19
2018-10-06T08:45:07.257Z,1004.17
2018-10-06T08:46:07.275Z,1004.12
2018-10-06T08:47:07.295Z,1004.16
2018-10-06T08:48:07.316Z,1004.15
2018-10-06T08:49:07.340Z,1004.13
2018-10-06T08:50:07.370Z,1004.14
2018-10-06T08:51:07.385Z,1004.11
2018-10-06T08:52:07.415Z,1004.15
2018-10-06T08:53:07.421Z,1004.10
2018-10-06T08:54:07.446Z,1004.12
2018-10-06T08:55:07.471Z,1004.12
2018-10-06T08:56:07.599Z,1004.09
2018-10-06T08:57:07.509Z,1004.05
2018-10-06T08:58:07.533Z,1004.08
2018-10-06T08:59:07.551Z,1004.02
2018-10-06T09:00:07.578Z,1004.03
2018-10-06T09:01:07.603Z,1004.04
2018-10-06T09:02:07.616Z,1004.00
2018-10-06T09:03:07.647Z,1003.93
2018-10-06T09:04:07.677Z,1003.95
2018-10-06T09:05:07.685Z,1003.96
2018-10-06T09:06:07.704Z,1003.89
2018-10-06T09:07:07.723Z,1003.91
2018-10-06T09:08:07.750Z,1003.87
2018-10-06T09:09:07.775Z,1003.85
2018-10-06T09:10:07.793Z,1003.87
2018-10-06T09:11:07.835Z,1003.91
2018-10-06T09:12:07.834Z,1003.94
2018-10-06T09:13:07.855Z,1003.93
2018-10-06T09:14:07.880Z,1003.95
2018-10-06T09:15:07.903Z,1003.99
2018-10-06T09:16:07.924Z,1004.02
2018-10-06T09:17:07.942Z,1003.96
2018-10-06T09:18:07.965Z,1003.97
2018-10-06T09:19:07.995Z,1003.96
2018-10-06T09:20:08.010Z,1003.91
2018-10-06T09:21:08.031Z,1003.86
2018-10-06T09:22:08.052Z,1003.88
2018-10-06T09:23:08.075Z,1003.89
2018-10-06T09:24:08.096Z,1003.89
2018-10-06T09:25:08.120Z,1003.91
2018-10-06T09:26:08.142Z,1003.94
2018-10-06T09:27:08.168Z,1003.94
2018-10-06T09:28:08.236Z,1003.93
2018-10-06T09:29:08.211Z,1003.95
2018-10-06T09:30:08.235Z,1003.95
2018-10-06T09:31:08.258Z,1003.92
2018-10-06T09:32:08.280Z,1003.92
2018-10-06T09:33:08.302Z,1003.89
2018-10-06T09:34:08.325Z,1003.86
2018-10-06T09:35:08.344Z,1003.87
2018-10-06T09:36:08.370Z,1003.84
2018-10-06T09:37:08.397Z,1003.84
2018-10-06T09:38:08.413Z,1003.86
2018-10-06T09:39:08.438Z,1003.83
2018-10-06T09:40:08.460Z,1003.84
2018-10-06T09:41:08.483Z,1003.83
2018-10-06T09:42:08.612Z,1003.81
2018-10-06T09:43:08.533Z,1003.79
2018-10-06T09:44:08.554Z,1003.80
2018-10-06T09:45:08.572Z,1003.78
2018-10-06T09:46:08.596Z,1003.78
2018-10-06T09:47:08.621Z,1003.78
2018-10-06T09:48:08.769Z,1003.75
2018-10-06T09:49:08.667Z,1003.73
2018-10-06T09:50:08.692Z,1003.74
2018-10-06T09:51:08.711Z,1003.71
2018-10-06T09:52:08.733Z,1003.73
2018-10-06T09:53:08.757Z,1003.72
2018-10-06T09:54:08.783Z,1003.74
2018-10-06T09:55:08.805Z,1003.72
2018-10-06T09:56:08.829Z,1003.69
2018-10-06T09:57:08.851Z,1003.66
2018-10-06T09:58:08.873Z,1003.68
2018-10-06T09:59:08.896Z,1003.67
2018-10-06T10:00:08.920Z,1003.64
2018-10-06T10:01:08.944Z,1003.65
2018-10-06T10:02:08.971Z,1003.64
2018-10-06T10:03:08.990Z,1003.65
2018-10-06T10:04:09.016Z,1003.67
2018-10-06T10:05:09.038Z,1003.53
2018-10-06T10:06:09.064Z,1003.54
2018-10-06T10:07:09.094Z,1003.54
2018-10-06T10:08:09.111Z,1003.56
2018-10-06T10:09:09.132Z,1003.52
2018-10-06T10:10:09.156Z,1003.54
2018-10-06T10:11:09.185Z,1003.53
2018-10-06T10:12:09.205Z,1003.51
2018-10-06T10:13:09.235Z,1003.43
2018-10-06T10:14:09.255Z,1003.46
2018-10-06T10:15:09.276Z,1003.44
2018-10-06T10:16:09.300Z,1003.45
2018-10-06T10:17:09.427Z,1003.39
2018-10-06T10:18:09.453Z,1003.46
2018-10-06T10:19:09.374Z,1003.41
2018-10-06T10:20:09.394Z,1003.39
2018-10-06T10:21:09.418Z,1003.37
2018-10-06T10:22:09.614Z,1003.38
2018-10-06T10:23:09.569Z,1003.38
2018-10-06T10:24:09.487Z,1003.39
2018-10-06T10:25:09.514Z,1003.38
2018-10-06T10:26:09.538Z,1003.37
2018-10-06T10:27:09.559Z,1003.34
2018-10-06T10:28:09.586Z,1003.29
2018-10-06T10:29:09.614Z,1003.31
2018-10-06T10:30:09.632Z,1003.28
2018-10-06T10:31:09.658Z,1003.26
2018-10-06T10:32:09.683Z,1003.28
2018-10-06T10:33:09.704Z,1003.26
2018-10-06T10:34:09.729Z,1003.29
2018-10-06T10:35:09.752Z,1003.25
2018-10-06T10:36:09.776Z,1003.28
2018-10-06T10:37:09.805Z,1003.24
2018-10-06T10:38:09.827Z,1003.18
2018-10-06T10:39:09.867Z,1003.17
2018-10-06T10:40:09.877Z,1003.16
2018-10-06T10:41:09.897Z,1003.12
2018-10-06T10:42:09.922Z,1003.11
2018-10-06T10:43:09.944Z,1003.11
2018-10-06T10:44:09.982Z,1003.09
2018-10-06T10:45:09.996Z,1003.07
2018-10-06T10:46:10.019Z,1003.00
2018-10-06T10:47:10.042Z,1003.03
2018-10-06T10:48:10.094Z,1003.01
2018-10-06T10:49:10.098Z,1002.98
2018-10-06T10:50:10.169Z,1002.97
2018-10-06T10:51:10.142Z,1002.97
2018-10-06T10:52:10.164Z,1002.94
2018-10-06T10:53:10.192Z,1002.96
2018-10-06T10:54:10.213Z,1002.94
2018-10-06T10:55:10.236Z,1002.92
2018-10-06T10:56:10.261Z,1002.92
2018-10-06T10:57:10.289Z,1002.90
2018-10-06T10:58:10.311Z,1002.93
2018-10-06T10:59:10.338Z,1002.88
2018-10-06T11:00:10.405Z,1002.87
2018-10-06T11:01:10.449Z,1002.85
2018-10-06T11:02:10.409Z,1002.85
2018-10-06T11:03:10.435Z,1002.84
2018-10-06T11:04:10.457Z,1002.82
2018-10-06T11:05:10.482Z,1002.81
2018-10-06T11:06:10.508Z,1002.83
2018-10-06T11:07:10.530Z,1002.78
2018-10-06T11:08:10.558Z,1002.82
2018-10-06T11:09:10.580Z,1002.75
2018-10-06T11:10:10.607Z,1002.72
2018-10-06T11:11:10.691Z,1002.77
2018-10-06T11:12:10.656Z,1002.76
2018-10-06T11:13:10.678Z,1002.74
2018-10-06T11:14:10.706Z,1002.78
2018-10-06T11:15:10.728Z,1002.75
2018-10-06T11:16:10.754Z,1002.72
2018-10-06T11:17:10.794Z,1002.74
2018-10-06T11:18:10.805Z,1002.74
2018-10-06T11:19:10.826Z,1002.74
2018-10-06T11:20:10.854Z,1002.70
2018-10-06T11:21:10.882Z,1002.70
2018-10-06T11:22:10.906Z,1002.65
2018-10-06T11:23:10.926Z,1002.67
2018-10-06T11:24:10.952Z,1002.66
2018-10-06T11:25:10.980Z,1002.65
2018-10-06T11:26:10.999Z,1002.67
2018-10-06T11:27:11.029Z,1002.67
2018-10-06T11:28:11.052Z,1002.69
2018-10-06T11:29:11.073Z,1002.64
2018-10-06T11:30:11.098Z,1002.61
2018-10-06T11:31:11.126Z,1002.63
2018-10-06T11:32:11.150Z,1002.64
2018-10-06T11:33:11.175Z,1002.63
2018-10-06T11:34:11.198Z,1002.63
2018-10-06T11:35:11.221Z,1002.59
2018-10-06T11:36:11.250Z,1002.59
2018-10-06T11:37:11.292Z,1002.60
2018-10-06T11:38:11.374Z,1002.66
2018-10-06T11:39:11.324Z,1002.57
2018-10-06T11:40:11.348Z,1002.55
2018-10-06T11:41:11.372Z,1002.53
2018-10-06T11:42:11.396Z,1002.55
2018-10-06T11:43:11.423Z,1002.46
2018-10-06T11:44:11.450Z,1002.43
2018-10-06T11:45:11.471Z,1002.47
2018-10-06T11:46:11.500Z,1002.42
2018-10-06T11:47:11.529Z,1002.42
2018-10-06T11:48:11.546Z,1002.40
2018-10-06T11:49:11.572Z,1002.40
2018-10-06T11:50:11.652Z,1002.36
2018-10-06T11:51:11.624Z,1002.34
2018-10-06T11:52:11.650Z,1002.34
2018-10-06T11:53:11.675Z,1002.32
2018-10-06T11:54:11.698Z,1002.35
2018-10-06T11:55:11.725Z,1002.32
2018-10-06T11:56:11.747Z,1002.37
2018-10-06T11:57:11.773Z,1002.34
2018-10-06T11:58:11.798Z,1002.32
2018-10-06T11:59:11.825Z,1002.28
2018-10-06T12:00:12.077Z,1002.29
2018-10-06T12:01:11.880Z,1002.26
2018-10-06T12:02:11.901Z,1002.29
2018-10-06T12:03:11.926Z,1002.28
2018-10-06T12:04:11.951Z,1002.23
2018-10-06T12:05:11.976Z,1002.24
2018-10-06T12:06:11.998Z,1002.27